createdAt,value
2018-06-13T00:02:06.110Z,19.30
2018-06-13T00:04:36.368Z,19.30
2018-06-13T00:07:06.623Z,19.30
2018-06-13T00:09:36.923Z,19.30
2018-06-13T00:12:07.285Z,19.30
2018-06-13T00:14:37.613Z,19.30
2018-06-13T00:17:08.012Z,19.30
2018-06-13T00:19:38.266Z,19.30
2018-06-13T00:22:08.624Z,19.30
2018-06-13T00:24:39.063Z,19.30
2018-06-13T00:27:09.429Z,19.30
2018-06-13T00:29:39.718Z,19.20
2018-06-13T00:32:10.196Z,19.20
2018-06-13T00:37:10.481Z,19.30
2018-06-13T00:39:40.769Z,19.30
2018-06-13T00:44:41.020Z,19.30
2018-06-13T00:47:11.401Z,19.30
2018-06-13T00:49:41.679Z,19.30
2018-06-13T00:52:11.964Z,19.20
2018-06-13T00:54:42.237Z,19.30
2018-06-13T00:57:12.510Z,19.30
2018-06-13T00:59:42.804Z,19.30
2018-06-13T01:02:13.165Z,19.30
2018-06-13T01:04:43.453Z,19.30
2018-06-13T01:07:13.739Z,19.30
2018-06-13T01:09:44.328Z,19.20
2018-06-13T01:12:14.628Z,19.20
2018-06-13T01:14:44.858Z,19.20
2018-06-13T01:17:15.153Z,19.20
2018-06-13T01:19:45.456Z,19.20
2018-06-13T01:22:15.738Z,19.20
2018-06-13T01:24:46.012Z,19.20
2018-06-13T01:27:16.318Z,19.20
2018-06-13T01:29:46.614Z,19.20
2018-06-13T01:32:17.412Z,19.20
2018-06-13T01:34:47.705Z,19.20
2018-06-13T01:37:18.878Z,19.20
2018-06-13T01:39:49.172Z,19.10
2018-06-13T01:42:19.449Z,19.10
2018-06-13T01:44:49.685Z,19.10
2018-06-13T01:47:19.943Z,19.10
2018-06-13T01:49:50.236Z,19.20
2018-06-13T01:52:20.617Z,19.10
2018-06-13T01:54:50.899Z,19.10
2018-06-13T01:57:21.258Z,19.10
2018-06-13T01:59:51.604Z,19.00
2018-06-13T02:02:21.884Z,18.90
2018-06-13T02:04:52.159Z,18.80
2018-06-13T02:07:23.368Z,18.80
2018-06-13T02:09:53.663Z,18.80
2018-06-13T02:14:53.792Z,18.90
2018-06-13T02:17:24.081Z,18.90
2018-06-13T02:19:54.386Z,18.90
2018-06-13T02:22:25.017Z,19.00
2018-06-13T02:24:55.295Z,19.00
2018-06-13T02:27:25.616Z,18.90
2018-06-13T02:29:55.848Z,18.90
2018-06-13T02:32:26.217Z,18.90
2018-06-13T02:34:56.505Z,19.00
2018-06-13T02:37:26.760Z,19.00
2018-06-13T02:39:57.054Z,19.00
2018-06-13T02:42:27.334Z,19.00
2018-06-13T02:44:57.592Z,19.00
2018-06-13T02:47:27.860Z,19.00
2018-06-13T02:49:58.095Z,19.00
2018-06-13T02:52:28.445Z,19.00
2018-06-13T02:54:58.688Z,19.00
2018-06-13T02:57:28.932Z,19.00
2018-06-13T02:59:59.225Z,19.00
2018-06-13T03:04:59.416Z,19.00
2018-06-13T03:07:29.669Z,19.10
2018-06-13T03:09:59.958Z,19.00
2018-06-13T03:12:30.236Z,19.00
2018-06-13T03:15:00.539Z,19.00
2018-06-13T03:17:30.795Z,19.00
2018-06-13T03:20:01.052Z,19.00
2018-06-13T03:22:31.306Z,19.00
2018-06-13T03:25:01.589Z,19.00
2018-06-13T03:27:32.193Z,19.00
2018-06-13T03:30:02.528Z,19.10
2018-06-13T03:32:33.029Z,19.10
2018-06-13T03:35:03.317Z,19.10
2018-06-13T03:37:33.568Z,19.10
2018-06-13T03:40:03.844Z,19.00
2018-06-13T03:42:34.124Z,19.00
2018-06-13T03:45:04.489Z,19.00
2018-06-13T03:47:34.736Z,19.10
2018-06-13T03:50:05.280Z,19.10
2018-06-13T03:52:35.560Z,19.20
2018-06-13T03:55:05.941Z,19.20
2018-06-13T04:00:06.253Z,19.30
2018-06-13T04:02:36.509Z,19.30
2018-06-13T04:05:06.796Z,19.40
2018-06-13T04:07:38.108Z,19.40
2018-06-13T04:10:08.452Z,19.50
2018-06-13T04:12:38.864Z,19.50
2018-06-13T04:15:09.217Z,19.50
2018-06-13T04:17:39.480Z,19.50
2018-06-13T04:20:09.854Z,19.60
2018-06-13T04:22:40.142Z,19.60
2018-06-13T04:25:10.459Z,19.70
2018-06-13T04:27:40.750Z,19.70
2018-06-13T04:30:11.042Z,19.70
2018-06-13T04:32:41.332Z,19.70
2018-06-13T04:35:11.619Z,19.70
2018-06-13T04:37:41.897Z,19.80
2018-06-13T04:40:12.265Z,19.70
2018-06-13T04:42:42.521Z,19.80
2018-06-13T04:45:12.896Z,19.80
2018-06-13T04:47:43.181Z,19.80
2018-06-13T04:50:13.414Z,19.90
2018-06-13T04:52:43.744Z,19.90
2018-06-13T04:55:14.058Z,19.80
2018-06-13T04:57:44.380Z,19.80
2018-06-13T05:00:14.673Z,19.80
2018-06-13T05:05:14.940Z,19.80
2018-06-13T05:07:45.231Z,19.70
2018-06-13T05:12:45.433Z,19.60
2018-06-13T05:15:15.723Z,19.70
2018-06-13T05:17:46.041Z,19.70
2018-06-13T05:20:16.372Z,19.70
2018-06-13T05:22:46.604Z,19.80
2018-06-13T05:25:16.976Z,19.80
2018-06-13T05:27:47.221Z,19.80
2018-06-13T05:30:17.544Z,19.90
2018-06-13T05:32:47.807Z,19.90
2018-06-13T05:35:18.096Z,20.00
2018-06-13T05:37:48.396Z,20.00
2018-06-13T05:40:18.676Z,20.10
2018-06-13T05:42:48.997Z,20.20
2018-06-13T05:45:19.305Z,20.30
2018-06-13T05:47:49.592Z,20.40
2018-06-13T05:50:19.880Z,20.50
2018-06-13T05:52:50.184Z,20.70
2018-06-13T05:55:20.464Z,20.70
2018-06-13T05:57:50.750Z,20.80
2018-06-13T06:00:21.276Z,20.90
2018-06-13T06:02:51.585Z,20.90
2018-06-13T06:05:21.848Z,21.00
2018-06-13T06:07:52.157Z,21.00
2018-06-13T06:10:22.551Z,21.10
2018-06-13T06:12:52.840Z,21.20
2018-06-13T06:15:23.368Z,21.20
2018-06-13T06:17:53.705Z,21.30
2018-06-13T06:20:24.108Z,21.40
2018-06-13T06:22:54.909Z,21.40
2018-06-13T06:25:25.245Z,21.50
2018-06-13T06:27:56.568Z,21.70
2018-06-13T06:30:26.879Z,21.70
2018-06-13T06:32:58.118Z,21.80
2018-06-13T06:35:28.585Z,21.90
2018-06-13T06:37:58.906Z,22.00
2018-06-13T06:40:29.917Z,22.10
2018-06-13T06:43:00.248Z,22.20
2018-06-13T06:45:30.650Z,22.20
2018-06-13T06:48:00.949Z,22.30
2018-06-13T06:50:31.217Z,22.30
2018-06-13T06:53:01.492Z,22.30
2018-06-13T06:55:31.927Z,22.30
2018-06-13T06:58:02.183Z,22.40
2018-06-13T07:00:32.515Z,22.40
2018-06-13T07:03:02.867Z,22.40
2018-06-13T07:05:33.237Z,22.40
2018-06-13T07:08:03.635Z,22.40
2018-06-13T07:10:34.332Z,22.40
2018-06-13T07:13:04.775Z,22.40
2018-06-13T07:15:35.176Z,22.40
2018-06-13T07:18:05.584Z,22.30
2018-06-13T07:20:35.911Z,22.30
2018-06-13T07:23:06.294Z,22.30
2018-06-13T07:25:36.722Z,22.40
2018-06-13T07:28:07.056Z,22.40
2018-06-13T07:30:37.374Z,22.40
2018-06-13T07:33:08.565Z,22.50
2018-06-13T07:35:39.257Z,22.60
2018-06-13T07:38:09.653Z,22.60
2018-06-13T07:40:40.093Z,22.70
2018-06-13T07:43:10.412Z,22.60
2018-06-13T07:45:40.867Z,22.60
2018-06-13T07:48:11.367Z,22.60
2018-06-13T07:50:41.923Z,22.60
2018-06-13T07:53:12.849Z,22.60
2018-06-13T07:55:43.156Z,22.60
2018-06-13T07:58:13.610Z,22.70
2018-06-13T08:00:43.944Z,22.70
2018-06-13T08:03:14.240Z,22.70
2018-06-13T08:05:44.580Z,22.80
2018-06-13T08:08:14.892Z,23.00
2018-06-13T08:10:45.157Z,23.00
2018-06-13T08:13:15.562Z,23.00
2018-06-13T08:15:45.923Z,23.10
2018-06-13T08:18:16.372Z,23.10
2018-06-13T08:20:46.653Z,23.10
2018-06-13T08:23:17.071Z,23.10
2018-06-13T08:25:47.422Z,23.20
2018-06-13T08:28:17.756Z,23.30
2018-06-13T08:30:48.161Z,23.30
2018-06-13T08:33:18.461Z,23.30
2018-06-13T08:35:48.825Z,23.30
2018-06-13T08:38:19.448Z,23.20
2018-06-13T08:40:50.066Z,23.30
2018-06-13T08:43:20.685Z,23.40
2018-06-13T08:45:51.276Z,23.50
2018-06-13T08:48:21.981Z,23.60
2018-06-13T08:50:52.690Z,23.60
2018-06-13T08:53:23.333Z,23.50
2018-06-13T08:58:24.173Z,23.40
2018-06-13T09:00:54.784Z,23.40
2018-06-13T09:03:25.386Z,23.40
2018-06-13T09:05:55.957Z,23.40
2018-06-13T09:08:26.621Z,23.60
2018-06-13T09:10:57.247Z,23.80
2018-06-13T09:13:27.837Z,23.90
2018-06-13T09:15:58.517Z,23.80
2018-06-13T09:18:29.205Z,23.80
2018-06-13T09:20:59.898Z,23.90
2018-06-13T09:23:30.456Z,24.00
2018-06-13T09:26:01.155Z,24.00
2018-06-13T09:28:31.734Z,24.00
2018-06-13T09:31:02.377Z,24.10
2018-06-13T09:33:32.963Z,24.00
2018-06-13T09:36:03.591Z,24.10
2018-06-13T09:38:34.284Z,24.20
2018-06-13T09:43:35.133Z,24.60
2018-06-13T09:46:11.863Z,24.90
2018-06-13T09:48:36.553Z,25.20
2018-06-13T09:51:07.325Z,25.40
2018-06-13T09:53:38.006Z,25.60
2018-06-13T09:56:08.722Z,25.80
2018-06-13T09:58:44.432Z,26.00
2018-06-13T10:01:19.994Z,26.10
2018-06-13T10:03:50.551Z,26.40
2018-06-13T10:06:21.182Z,26.60
2018-06-13T10:08:51.752Z,26.50
2018-06-13T10:11:22.363Z,26.40
2018-06-13T10:13:53.016Z,26.40
2018-06-13T10:16:23.593Z,26.50
2018-06-13T10:18:54.335Z,26.60
2018-06-13T10:21:24.945Z,26.70
2018-06-13T10:23:55.551Z,26.70
2018-06-13T10:26:26.211Z,26.70
2018-06-13T10:28:56.848Z,26.60
2018-06-13T10:31:27.548Z,26.50
2018-06-13T10:33:58.195Z,26.60
2018-06-13T10:36:29.242Z,26.80
2018-06-13T10:41:30.331Z,27.20
2018-06-13T10:44:01.027Z,27.30
2018-06-13T10:46:31.622Z,27.20
2018-06-13T10:49:02.295Z,27.50
2018-06-13T10:51:33.000Z,27.70
2018-06-13T10:54:03.695Z,28.00
2018-06-13T10:56:34.323Z,28.40
2018-06-13T10:59:04.969Z,28.80
2018-06-13T11:01:35.558Z,28.80
2018-06-13T11:06:36.507Z,28.90
2018-06-13T11:09:09.613Z,29.10
2018-06-13T11:14:10.343Z,29.30
2018-06-13T11:16:41.059Z,29.40
2018-06-13T11:19:11.681Z,29.50
2018-06-13T11:21:42.317Z,29.90
2018-06-13T11:24:12.981Z,29.70
2018-06-13T11:26:43.836Z,29.60
2018-06-13T11:29:14.617Z,29.30
2018-06-13T11:31:45.286Z,29.20
2018-06-13T11:34:15.901Z,29.20
2018-06-13T11:36:46.539Z,29.50
2018-06-13T11:39:17.131Z,29.50
2018-06-13T11:41:47.765Z,29.80
2018-06-13T11:44:18.430Z,30.10
2018-06-13T11:46:49.243Z,30.30
2018-06-13T11:49:20.910Z,31.00
2018-06-13T11:51:51.601Z,31.30
2018-06-13T11:54:22.195Z,30.80
2018-06-13T11:59:23.107Z,29.40
2018-06-13T12:01:53.843Z,29.40
2018-06-13T12:04:24.855Z,29.10
2018-06-13T12:06:55.495Z,29.30
2018-06-13T12:09:26.152Z,29.30
2018-06-13T12:11:56.791Z,29.90
2018-06-13T12:14:27.352Z,30.40
2018-06-13T12:16:57.994Z,31.10
2018-06-13T12:19:28.661Z,31.70
2018-06-13T12:21:59.424Z,31.90
2018-06-13T12:24:30.524Z,31.50
2018-06-13T12:27:01.183Z,31.20
2018-06-13T12:29:31.902Z,31.00
2018-06-13T12:32:02.613Z,31.50
2018-06-13T12:34:33.255Z,32.00
2018-06-13T12:37:03.914Z,32.60
2018-06-13T12:39:34.534Z,33.10
2018-06-13T12:42:05.123Z,32.80
2018-06-13T12:44:35.724Z,32.70
2018-06-13T12:47:06.535Z,32.60
2018-06-13T12:49:37.173Z,31.90
2018-06-13T12:52:07.838Z,31.30
2018-06-13T12:57:08.590Z,30.20
2018-06-13T12:59:39.163Z,29.90
2018-06-13T13:02:09.741Z,29.70
2018-06-13T13:04:40.296Z,30.40
2018-06-13T13:07:11.284Z,31.60
2018-06-13T13:09:42.632Z,32.80
2018-06-13T13:12:13.399Z,34.00
2018-06-13T13:14:44.075Z,34.80
2018-06-13T13:17:14.683Z,35.40
2018-06-13T13:19:45.273Z,35.70
2018-06-13T13:22:15.894Z,35.90
2018-06-13T13:24:46.466Z,36.40
2018-06-13T13:27:18.309Z,36.90
2018-06-13T13:32:20.058Z,36.00
2018-06-13T13:34:51.800Z,35.30
2018-06-13T13:37:22.515Z,35.30
2018-06-13T13:39:53.221Z,35.60
2018-06-13T13:42:23.889Z,35.70
2018-06-13T13:44:54.484Z,35.50
2018-06-13T13:47:25.128Z,35.30
2018-06-13T13:49:55.794Z,35.40
2018-06-13T13:52:26.394Z,35.50
2018-06-13T13:54:57.076Z,35.50
2018-06-13T13:57:27.786Z,35.70
2018-06-13T13:59:58.761Z,35.60
2018-06-13T14:02:29.421Z,35.50
2018-06-13T14:05:00.094Z,35.80
2018-06-13T14:07:30.787Z,35.60
2018-06-13T14:12:31.622Z,35.00
2018-06-13T14:15:03.298Z,34.70
2018-06-13T14:17:33.907Z,34.10
2018-06-13T14:22:35.549Z,33.40
2018-06-13T14:25:06.620Z,33.40
2018-06-13T14:30:09.556Z,33.40
2018-06-13T14:32:40.166Z,33.50
2018-06-13T14:40:11.085Z,32.90
2018-06-13T14:42:41.741Z,32.70
2018-06-13T14:45:12.346Z,32.60
2018-06-13T14:47:42.998Z,32.70
2018-06-13T14:52:43.922Z,32.70
2018-06-13T14:55:14.576Z,32.80
2018-06-13T14:57:45.140Z,32.90
2018-06-13T15:02:45.907Z,32.50
2018-06-13T15:05:16.510Z,31.80
2018-06-13T15:07:47.126Z,31.10
2018-06-13T15:10:17.741Z,29.60
2018-06-13T15:12:49.178Z,28.30
2018-06-13T15:15:19.762Z,27.40
2018-06-13T15:20:20.601Z,26.50
2018-06-13T15:22:51.194Z,26.00
2018-06-13T15:25:22.073Z,25.70
2018-06-13T15:27:52.757Z,25.70
2018-06-13T15:30:27.456Z,25.80
2018-06-13T15:32:58.100Z,25.80
2018-06-13T15:35:29.155Z,25.80
2018-06-13T15:38:01.983Z,25.70
2018-06-13T15:40:32.596Z,25.50
2018-06-13T15:43:03.273Z,25.30
2018-06-13T15:45:33.875Z,24.80
2018-06-13T15:48:04.670Z,24.70
2018-06-13T15:50:35.490Z,24.60
2018-06-13T15:53:06.229Z,24.60
2018-06-13T15:55:36.801Z,24.50
2018-06-13T15:58:07.559Z,24.40
2018-06-13T16:00:38.127Z,24.30
2018-06-13T16:03:09.093Z,24.40
2018-06-13T16:05:39.709Z,24.40
2018-06-13T16:08:10.381Z,24.30
2018-06-13T16:10:41.074Z,24.10
2018-06-13T16:13:11.704Z,23.90
2018-06-13T16:15:42.335Z,23.60
2018-06-13T16:18:12.985Z,23.40
2018-06-13T16:20:43.689Z,23.00
2018-06-13T16:23:14.270Z,22.60
2018-06-13T16:25:44.882Z,22.20
2018-06-13T16:28:15.487Z,22.00
2018-06-13T16:30:46.171Z,21.80
2018-06-13T16:33:16.874Z,21.60
2018-06-13T16:35:47.493Z,21.30
2018-06-13T16:38:18.140Z,21.20
2018-06-13T16:40:50.391Z,21.30
2018-06-13T16:43:22.007Z,21.20
2018-06-13T16:45:57.950Z,21.40
2018-06-13T16:48:34.338Z,21.30
2018-06-13T16:51:21.830Z,21.40
2018-06-13T16:54:07.103Z,21.30
2018-06-13T16:56:37.634Z,21.20
2018-06-13T16:59:08.210Z,21.20
2018-06-13T17:01:38.821Z,21.10
2018-06-13T17:04:09.530Z,21.10
2018-06-13T17:06:40.191Z,21.00
2018-06-13T17:09:10.821Z,21.00
2018-06-13T17:11:41.472Z,21.00
2018-06-13T17:14:12.143Z,21.00
2018-06-13T17:16:42.784Z,20.90
2018-06-13T17:19:13.443Z,20.80
2018-06-13T17:21:44.083Z,20.70
2018-06-13T17:24:14.711Z,20.70
2018-06-13T17:26:45.407Z,20.80
2018-06-13T17:29:16.049Z,20.60
2018-06-13T17:31:46.671Z,20.50
2018-06-13T17:34:17.310Z,20.30
2018-06-13T17:36:47.867Z,20.30
2018-06-13T17:39:18.597Z,20.30
2018-06-13T17:41:49.141Z,20.40
2018-06-13T17:44:19.789Z,20.40
2018-06-13T17:46:50.398Z,20.40
2018-06-13T17:49:20.969Z,20.50
2018-06-13T17:51:51.756Z,20.50
2018-06-13T17:54:22.537Z,20.50
2018-06-13T17:56:53.421Z,20.60
2018-06-13T17:59:24.454Z,20.70
2018-06-13T18:01:55.125Z,20.70
2018-06-13T18:04:25.729Z,20.80
2018-06-13T18:06:56.405Z,20.80
2018-06-13T18:09:27.024Z,20.80
2018-06-13T18:11:57.701Z,20.90
2018-06-13T18:14:28.323Z,20.90
2018-06-13T18:16:59.153Z,20.50
2018-06-13T18:19:29.752Z,20.90
2018-06-13T18:22:00.312Z,21.00
2018-06-13T18:24:30.944Z,21.00
2018-06-13T18:27:01.567Z,20.90
2018-06-13T18:29:32.177Z,20.90
2018-06-13T18:32:02.828Z,20.80
2018-06-13T18:34:33.427Z,20.80
2018-06-13T18:37:04.049Z,20.70
2018-06-13T18:39:34.601Z,20.70
2018-06-13T18:42:05.279Z,20.60
2018-06-13T18:44:35.895Z,20.60
2018-06-13T18:47:06.797Z,20.50
2018-06-13T18:49:37.422Z,20.50
2018-06-13T18:52:08.060Z,20.50
2018-06-13T18:54:38.662Z,20.50
2018-06-13T18:57:09.386Z,20.50
2018-06-13T18:59:40.068Z,20.50
2018-06-13T19:02:11.101Z,20.40
2018-06-13T19:04:42.268Z,20.30
2018-06-13T19:07:14.473Z,20.30
2018-06-13T19:09:45.428Z,20.30
2018-06-13T19:12:16.194Z,20.20
2018-06-13T19:14:46.820Z,20.20
2018-06-13T19:19:47.687Z,20.20
2018-06-13T19:22:18.297Z,20.20
2018-06-13T19:24:48.875Z,20.10
2018-06-13T19:27:19.571Z,20.10
2018-06-13T19:29:50.222Z,20.00
2018-06-13T19:32:20.848Z,20.00
2018-06-13T19:34:51.445Z,20.00
2018-06-13T19:37:22.120Z,20.00
2018-06-13T19:39:52.784Z,19.90
2018-06-13T19:42:23.363Z,19.90
2018-06-13T19:44:54.085Z,19.90
2018-06-13T19:47:29.672Z,20.00
2018-06-13T19:50:00.279Z,19.90
2018-06-13T19:52:36.040Z,19.90
2018-06-13T19:55:11.661Z,19.90
2018-06-13T19:57:42.518Z,19.90
2018-06-13T20:00:13.182Z,19.80
2018-06-13T20:02:50.643Z,19.80
2018-06-13T20:05:26.206Z,19.80
2018-06-13T20:07:56.940Z,19.70
2018-06-13T20:10:27.591Z,19.70
2018-06-13T20:18:13.837Z,19.60
2018-06-13T20:20:44.625Z,19.60
2018-06-13T20:23:15.361Z,19.60
2018-06-13T20:25:50.924Z,19.50
2018-06-13T20:29:24.242Z,19.50
2018-06-13T20:31:54.923Z,19.40
2018-06-13T20:34:25.709Z,19.30
2018-06-13T20:39:26.978Z,19.30
2018-06-13T20:41:58.268Z,19.30
2018-06-13T20:44:30.136Z,19.20
2018-06-13T20:47:00.763Z,19.20
2018-06-13T20:49:32.105Z,19.20
2018-06-13T20:52:03.305Z,19.20
2018-06-13T20:54:33.947Z,19.20
2018-06-13T20:57:04.525Z,19.30
2018-06-13T20:59:35.147Z,19.20
2018-06-13T21:02:05.892Z,19.20
2018-06-13T21:04:36.501Z,19.20
2018-06-13T21:07:07.167Z,19.10
2018-06-13T21:09:37.822Z,19.10
2018-06-13T21:14:38.686Z,19.10
2018-06-13T21:17:09.290Z,19.20
2018-06-13T21:19:39.845Z,19.10
2018-06-13T21:22:10.457Z,19.00
2018-06-13T21:24:41.091Z,19.00
2018-06-13T21:27:11.645Z,19.00
2018-06-13T21:29:42.969Z,18.90
2018-06-13T21:32:13.521Z,18.90
2018-06-13T21:34:44.168Z,18.90
2018-06-13T21:37:14.756Z,18.90
2018-06-13T21:39:45.382Z,18.90
2018-06-13T21:42:16.273Z,18.90
2018-06-13T21:44:46.863Z,18.90
2018-06-13T21:49:47.843Z,18.80
2018-06-13T21:52:18.630Z,18.80
2018-06-13T21:54:49.217Z,18.80
2018-06-13T21:57:19.837Z,18.90
2018-06-13T21:59:50.426Z,18.90
2018-06-13T22:02:21.044Z,18.90
2018-06-13T22:04:51.649Z,18.80
2018-06-13T22:07:22.342Z,18.80
2018-06-13T22:09:52.983Z,18.80
2018-06-13T22:14:53.713Z,18.80
2018-06-13T22:17:24.306Z,18.80
2018-06-13T22:19:54.892Z,18.80
2018-06-13T22:22:25.461Z,18.70
2018-06-13T22:24:56.099Z,18.60
2018-06-13T22:27:26.683Z,18.60
2018-06-13T22:29:57.296Z,18.60
2018-06-13T22:32:27.906Z,18.70
2018-06-13T22:34:58.473Z,18.70
2018-06-13T22:39:59.257Z,18.70
2018-06-13T22:42:30.090Z,18.70
2018-06-13T22:45:00.689Z,18.70
2018-06-13T22:47:31.300Z,18.60
2018-06-13T22:52:32.082Z,18.60
2018-06-13T22:55:02.685Z,18.60
2018-06-13T22:57:33.282Z,18.60
2018-06-13T23:00:03.968Z,18.60
2018-06-13T23:05:04.739Z,18.60
2018-06-13T23:07:35.632Z,18.60
2018-06-13T23:10:06.231Z,18.60
2018-06-13T23:12:36.763Z,18.60
2018-06-13T23:15:07.402Z,18.60
2018-06-13T23:17:37.988Z,18.60
2018-06-13T23:20:08.602Z,18.70
2018-06-13T23:22:39.220Z,18.60
2018-06-13T23:25:09.802Z,18.60
2018-06-13T23:27:40.398Z,18.50
2018-06-13T23:35:11.289Z,18.50
2018-06-13T23:37:41.904Z,18.50
2018-06-13T23:42:42.604Z,18.50
2018-06-13T23:45:13.194Z,18.50
2018-06-13T23:47:43.785Z,18.50
2018-06-13T23:50:14.349Z,18.40
2018-06-13T23:52:45.058Z,18.40
2018-06-13T23:55:15.666Z,18.40
2018-06-13T23:57:46.614Z,18.50
